Time;durP1;ratioP1;P1;durP2;ratioP2;P2;SDS_P1;SDS_P2;PMS_P1;PMS_P2;Temp;Humidity;BMP_temperature;BMP_pressure;BME280_temperature;BME280_humidity;BME280_pressure;Samples;Min_cycle;Max_cycle;Signal;HPM_P1;HPM_P2
2023/10/24 00:01:49;;;;;;;10.35;4.35;;;13.00;99.90;;;;;;5058929;28;20029;-57
2023/10/24 00:04:15;;;;;;;12.93;4.80;;;13.00;99.90;;;;;;5053609;28;20403;-57
2023/10/24 00:06:41;;;;;;;6.78;4.82;;;13.00;99.90;;;;;;5062210;28;20744;-55
2023/10/24 00:09:06;;;;;;;10.35;5.28;;;13.00;99.90;;;;;;5054781;28;20478;-56
2023/10/24 00:11:33;;;;;;;11.88;5.22;;;13.00;99.90;;;;;;5060077;28;20569;-53
2023/10/24 00:13:59;;;;;;;12.52;5.65;;;13.00;99.90;;;;;;5054797;28;20043;-58
2023/10/24 00:16:24;;;;;;;12.35;5.85;;;13.00;99.90;;;;;;5057944;28;20480;-57
2023/10/24 00:18:50;;;;;;;5.80;4.32;;;13.00;99.90;;;;;;5059291;28;20044;-56
2023/10/24 00:21:16;;;;;;;9.25;5.38;;;13.00;99.90;;;;;;5056613;28;20029;-55
2023/10/24 00:23:41;;;;;;;12.15;5.32;;;12.90;99.90;;;;;;5057825;28;20032;-58
2023/10/24 00:26:07;;;;;;;11.82;4.68;;;12.80;99.90;;;;;;5055485;28;21965;-56
2023/10/24 00:28:34;;;;;;;11.13;4.80;;;12.70;99.90;;;;;;5056459;28;20115;-56
2023/10/24 00:31:00;;;;;;;13.68;5.38;;;12.70;99.90;;;;;;5057792;28;20017;-56
2023/10/24 00:33:26;;;;;;;7.68;4.72;;;12.70;99.90;;;;;;5060520;28;20098;-58
2023/10/24 00:35:51;;;;;;;8.95;5.20;;;12.70;99.90;;;;;;5064116;28;20086;-57
2023/10/24 00:38:17;;;;;;;10.43;4.90;;;12.60;99.90;;;;;;5062031;28;20029;-58
2023/10/24 00:40:42;;;;;;;12.02;6.13;;;12.60;99.90;;;;;;5058277;28;20505;-57
2023/10/24 00:43:09;;;;;;;7.28;4.60;;;12.60;99.90;;;;;;5061613;28;20044;-57
2023/10/24 00:45:35;;;;;;;10.60;4.85;;;12.60;99.90;;;;;;5060676;28;20664;-51
2023/10/24 00:48:02;;;;;;;11.88;4.97;;;12.50;99.90;;;;;;5057474;28;20043;-57
2023/10/24 00:50:28;;;;;;;8.82;5.30;;;12.50;99.90;;;;;;5061695;28;20025;-57
2023/10/24 00:52:55;;;;;;;14.23;5.68;;;12.40;99.90;;;;;;5062299;28;20025;-52
2023/10/24 00:55:21;;;;;;;11.13;5.85;;;12.40;99.90;;;;;;5059587;28;20043;-57
2023/10/24 00:57:48;;;;;;;13.00;5.63;;;12.40;99.90;;;;;;5054966;28;20036;-58
2023/10/24 01:00:14;;;;;;;8.00;5.18;;;12.40;99.90;;;;;;5057145;28;20039;-58
2023/10/24 01:02:40;;;;;;;11.02;4.88;;;12.50;99.90;;;;;;5060884;28;20060;-58
2023/10/24 01:05:07;;;;;;;12.63;4.95;;;12.50;99.90;;;;;;5052261;28;20071;-55
2023/10/24 01:07:33;;;;;;;13.50;5.20;;;12.40;99.90;;;;;;5055981;28;20410;-58
2023/10/24 01:09:59;;;;;;;11.77;5.20;;;12.50;99.90;;;;;;5052841;28;20017;-56
2023/10/24 01:12:25;;;;;;;14.63;5.47;;;12.50;99.90;;;;;;5052826;28;20032;-56
2023/10/24 01:14:51;;;;;;;10.75;4.78;;;12.50;99.90;;;;;;5056868;28;20021;-57
2023/10/24 01:17:17;;;;;;;14.80;4.60;;;12.50;99.90;;;;;;5058503;28;20029;-53
2023/10/24 01:19:43;;;;;;;9.48;4.03;;;12.50;99.90;;;;;;5058039;28;20048;-54
2023/10/24 01:22:08;;;;;;;8.63;4.47;;;12.40;99.90;;;;;;5055035;28;20031;-54
2023/10/24 01:24:35;;;;;;;13.95;4.28;;;12.50;99.90;;;;;;5052211;28;20056;-57
2023/10/24 01:27:01;;;;;;;9.10;4.15;;;12.40;99.90;;;;;;5054865;28;20045;-55
2023/10/24 01:29:26;;;;;;;7.57;4.10;;;12.40;99.90;;;;;;5053277;28;20047;-58
2023/10/24 01:31:52;;;;;;;9.55;4.32;;;12.50;99.90;;;;;;5052721;28;20096;-55
2023/10/24 01:34:17;;;;;;;10.68;4.53;;;12.50;99.90;;;;;;5054075;28;20479;-58
2023/10/24 01:36:43;;;;;;;7.78;4.05;;;12.50;99.90;;;;;;5053931;28;20021;-58
2023/10/24 01:39:09;;;;;;;9.18;3.45;;;12.50;99.90;;;;;;5051084;28;20028;-56
2023/10/24 01:41:34;;;;;;;7.03;3.60;;;12.50;99.90;;;;;;5053458;28;20478;-56
2023/10/24 01:44:00;;;;;;;5.80;3.35;;;12.50;99.90;;;;;;5057697;28;20036;-55
2023/10/24 01:46:26;;;;;;;10.02;3.50;;;12.50;99.90;;;;;;5057776;28;20028;-57
2023/10/24 01:48:51;;;;;;;9.43;4.18;;;12.50;99.90;;;;;;5059087;28;20445;-58
2023/10/24 01:51:17;;;;;;;11.15;4.18;;;12.60;99.90;;;;;;5044214;28;20021;-58
2023/10/24 01:53:42;;;;;;;6.68;4.13;;;12.70;99.90;;;;;;5043079;28;20032;-57
2023/10/24 01:56:11;;;;;;;4.78;3.03;;;12.70;99.90;;;;;;5050191;28;20049;-56
2023/10/24 01:58:36;;;;;;;7.05;4.07;;;12.70;99.90;;;;;;5057849;28;20033;-58
2023/10/24 02:01:02;;;;;;;8.38;3.83;;;12.80;99.90;;;;;;5056870;28;20024;-57
2023/10/24 02:03:28;;;;;;;12.82;3.85;;;12.80;99.90;;;;;;5055044;28;20028;-54
2023/10/24 02:05:54;;;;;;;4.78;3.40;;;12.80;99.90;;;;;;5054439;28;20495;-52
2023/10/24 02:08:19;;;;;;;11.23;3.10;;;12.80;99.90;;;;;;5053142;28;20032;-58
2023/10/24 02:10:45;;;;;;;8.45;3.00;;;12.80;99.90;;;;;;5058369;28;20112;-58
2023/10/24 02:13:10;;;;;;;8.15;3.63;;;12.80;99.90;;;;;;5059196;28;20025;-54
2023/10/24 02:15:37;;;;;;;13.55;3.22;;;12.90;99.90;;;;;;5057518;28;20099;-56
2023/10/24 02:18:03;;;;;;;4.15;2.67;;;12.90;99.90;;;;;;5054562;28;20070;-58
2023/10/24 02:20:28;;;;;;;5.72;3.05;;;12.90;99.90;;;;;;5051024;28;20037;-55
2023/10/24 02:22:54;;;;;;;7.28;2.88;;;12.90;99.90;;;;;;5053979;28;20028;-58
2023/10/24 02:25:19;;;;;;;10.43;3.00;;;12.90;99.90;;;;;;5051462;28;20806;-58
2023/10/24 02:27:45;;;;;;;6.90;2.80;;;12.90;99.90;;;;;;5055925;28;20445;-57
2023/10/24 02:30:11;;;;;;;10.80;3.05;;;13.00;99.90;;;;;;5056144;28;20063;-58
2023/10/24 02:32:37;;;;;;;10.68;2.38;;;13.00;99.90;;;;;;5063272;28;20032;-58
2023/10/24 02:35:03;;;;;;;9.60;2.35;;;13.00;99.90;;;;;;5062582;28;20104;-58
2023/10/24 02:37:29;;;;;;;7.85;2.47;;;13.00;99.90;;;;;;5059686;28;20426;-58
2023/10/24 02:39:54;;;;;;;7.00;2.17;;;13.00;99.90;;;;;;5056954;28;20515;-58
2023/10/24 02:42:20;;;;;;;7.32;2.05;;;13.00;99.90;;;;;;5059543;28;20028;-56
2023/10/24 02:44:49;;;;;;;7.50;2.38;;;13.00;99.90;;;;;;5057107;28;20388;-56
2023/10/24 02:47:15;;;;;;;6.05;2.53;;;13.00;99.90;;;;;;5055044;28;20027;-51
2023/10/24 02:49:40;;;;;;;7.00;2.72;;;13.00;99.90;;;;;;5063088;28;20025;-56
2023/10/24 02:52:06;;;;;;;5.57;2.50;;;13.00;99.90;;;;;;5054368;28;20029;-58
2023/10/24 02:54:31;;;;;;;9.23;2.30;;;13.00;99.90;;;;;;5056295;28;20037;-58
2023/10/24 02:56:57;;;;;;;3.30;1.83;;;13.00;99.90;;;;;;5055408;28;20028;-58
2023/10/24 02:59:22;;;;;;;9.38;1.83;;;13.00;99.90;;;;;;5053829;28;20021;-57
2023/10/24 03:01:48;;;;;;;11.75;2.20;;;13.00;99.90;;;;;;5050427;28;20123;-57
2023/10/24 03:04:14;;;;;;;2.72;1.60;;;13.00;99.90;;;;;;5057676;28;20036;-58
2023/10/24 03:06:39;;;;;;;8.55;1.80;;;13.00;99.90;;;;;;5053752;28;20040;-56
2023/10/24 03:09:05;;;;;;;5.40;1.95;;;13.00;99.90;;;;;;5053310;28;20044;-56
2023/10/24 03:11:30;;;;;;;6.93;1.95;;;13.00;99.90;;;;;;5059375;28;20081;-54
2023/10/24 03:13:56;;;;;;;3.53;1.77;;;13.00;99.90;;;;;;5052239;28;20024;-58
2023/10/24 03:16:22;;;;;;;2.53;1.63;;;13.00;99.90;;;;;;5054418;28;20439;-57
2023/10/24 03:18:48;;;;;;;3.13;1.83;;;13.00;99.90;;;;;;5060813;28;20025;-55
2023/10/24 03:21:13;;;;;;;13.93;2.22;;;13.00;99.90;;;;;;5056441;28;20104;-58
2023/10/24 03:23:44;;;;;;;2.67;1.38;;;13.10;99.90;;;;;;5055238;28;20036;-59
2023/10/24 03:26:09;;;;;;;3.60;1.52;;;13.10;99.90;;;;;;5054668;28;20041;-57
2023/10/24 03:28:35;;;;;;;8.38;1.75;;;13.10;99.90;;;;;;5061465;28;20033;-58
2023/10/24 03:31:05;;;;;;;2.60;1.58;;;13.10;99.90;;;;;;5057082;28;20128;-57
2023/10/24 03:33:31;;;;;;;2.92;1.45;;;13.10;99.90;;;;;;5053576;28;20029;-52
2023/10/24 03:35:57;;;;;;;1.83;1.55;;;13.00;99.90;;;;;;5058865;28;20024;-58
2023/10/24 03:38:24;;;;;;;3.10;1.20;;;13.00;99.90;;;;;;5059848;28;20033;-55
2023/10/24 03:40:50;;;;;;;4.32;1.48;;;13.00;99.90;;;;;;5056307;28;20079;-55
2023/10/24 03:43:16;;;;;;;3.53;1.30;;;13.00;99.90;;;;;;5056790;28;20032;-58
2023/10/24 03:45:42;;;;;;;3.10;1.20;;;12.90;99.90;;;;;;5058725;28;20510;-56
2023/10/24 03:48:08;;;;;;;3.90;1.48;;;12.90;99.90;;;;;;5056851;28;20119;-57
2023/10/24 03:50:37;;;;;;;3.90;1.63;;;12.90;99.90;;;;;;5062478;28;20538;-55
2023/10/24 03:53:04;;;;;;;4.45;1.60;;;12.90;99.90;;;;;;5057652;28;20495;-56
2023/10/24 03:55:30;;;;;;;4.28;1.20;;;12.90;99.90;;;;;;5056661;28;20060;-56
2023/10/24 03:57:56;;;;;;;2.72;1.20;;;12.90;99.90;;;;;;5056566;28;20064;-58
2023/10/24 04:00:22;;;;;;;5.93;1.63;;;12.90;99.90;;;;;;5053868;28;20119;-53
2023/10/24 04:02:51;;;;;;;5.45;1.42;;;13.00;99.90;;;;;;5064357;28;20561;-58
2023/10/24 04:05:16;;;;;;;3.60;1.60;;;12.90;99.90;;;;;;5055022;28;20032;-57
2023/10/24 04:07:42;;;;;;;1.98;1.15;;;12.90;99.90;;;;;;5056262;28;20024;-57
2023/10/24 04:10:08;;;;;;;2.13;1.40;;;12.90;99.90;;;;;;5052134;28;20032;-55
2023/10/24 04:12:33;;;;;;;5.38;1.20;;;12.90;99.90;;;;;;5048607;28;20024;-55
2023/10/24 04:14:59;;;;;;;7.60;1.40;;;12.90;99.90;;;;;;5055648;28;20511;-56
2023/10/24 04:17:25;;;;;;;3.53;2.03;;;12.90;99.90;;;;;;5056298;28;20032;-56
2023/10/24 04:19:50;;;;;;;3.47;1.25;;;12.90;99.90;;;;;;5059951;28;20045;-52
2023/10/24 04:22:16;;;;;;;1.65;1.10;;;12.90;99.90;;;;;;5060957;28;20032;-57
2023/10/24 04:24:41;;;;;;;1.02;0.93;;;12.90;99.90;;;;;;5066137;28;20040;-58
2023/10/24 04:27:09;;;;;;;7.18;1.13;;;12.90;99.90;;;;;;5059893;28;20036;-56
2023/10/24 04:29:35;;;;;;;1.55;1.08;;;13.00;99.90;;;;;;5055732;28;20451;-58
2023/10/24 04:32:01;;;;;;;7.88;1.05;;;13.00;99.90;;;;;;5059451;28;20092;-57
2023/10/24 04:34:26;;;;;;;6.07;1.17;;;13.00;99.90;;;;;;5066158;28;20111;-58
2023/10/24 04:36:53;;;;;;;2.97;1.10;;;13.00;99.90;;;;;;5061576;28;20021;-58
2023/10/24 04:39:19;;;;;;;4.25;1.10;;;13.00;99.90;;;;;;5058780;28;20053;-56
2023/10/24 04:41:47;;;;;;;1.60;1.00;;;13.00;99.90;;;;;;5059313;28;20036;-54
2023/10/24 04:44:14;;;;;;;3.22;1.17;;;13.00;99.90;;;;;;5059990;28;20048;-58
2023/10/24 04:46:40;;;;;;;2.97;1.00;;;13.00;99.90;;;;;;5055307;28;20095;-58
2023/10/24 04:49:06;;;;;;;1.05;0.80;;;13.00;99.90;;;;;;5061548;28;20498;-56
2023/10/24 04:51:31;;;;;;;13.50;1.00;;;13.00;99.90;;;;;;5060569;28;20060;-58
2023/10/24 04:53:57;;;;;;;0.85;0.60;;;13.00;99.90;;;;;;5055187;28;20076;-55
2023/10/24 04:56:22;;;;;;;2.55;1.00;;;12.90;99.90;;;;;;5057193;28;20562;-54
2023/10/24 04:58:49;;;;;;;2.03;1.00;;;12.90;99.90;;;;;;5057181;28;20037;-57
2023/10/24 05:01:14;;;;;;;4.32;0.80;;;12.90;99.90;;;;;;5055614;28;20081;-56
2023/10/24 05:03:40;;;;;;;1.80;0.88;;;12.90;99.90;;;;;;5060248;28;20490;-63
2023/10/24 05:06:06;;;;;;;1.48;1.00;;;12.90;99.90;;;;;;5054149;28;20467;-62
2023/10/24 05:08:31;;;;;;;5.55;1.00;;;12.90;99.90;;;;;;5059283;28;20039;-63
2023/10/24 05:10:57;;;;;;;5.63;0.88;;;12.90;99.90;;;;;;5062817;28;20111;-63
2023/10/24 05:13:22;;;;;;;3.20;1.17;;;12.90;99.90;;;;;;5053287;28;20013;-62
2023/10/24 05:15:48;;;;;;;4.82;1.20;;;12.90;99.90;;;;;;5061686;28;20046;-63
2023/10/24 05:18:14;;;;;;;1.63;0.95;;;12.90;99.90;;;;;;5055780;28;20028;-61
2023/10/24 05:20:39;;;;;;;3.97;1.10;;;12.80;99.90;;;;;;5054478;28;20036;-62
2023/10/24 05:23:06;;;;;;;2.45;1.40;;;12.80;99.90;;;;;;5062662;28;20036;-61
2023/10/24 05:25:31;;;;;;;3.15;2.45;;;12.90;99.90;;;;;;5058705;28;20039;-63
2023/10/24 05:27:57;;;;;;;4.40;1.10;;;12.80;99.90;;;;;;5063375;28;20033;-61
2023/10/24 05:30:23;;;;;;;2.72;1.08;;;12.80;99.90;;;;;;5048899;28;20445;-62
2023/10/24 05:32:49;;;;;;;3.55;1.08;;;12.80;99.90;;;;;;5065502;28;20020;-62
2023/10/24 05:35:14;;;;;;;4.80;0.90;;;12.80;99.90;;;;;;5054175;28;20032;-60
2023/10/24 05:37:40;;;;;;;1.13;0.90;;;12.80;99.90;;;;;;5051258;28;20082;-62
2023/10/24 05:40:06;;;;;;;2.25;1.02;;;12.80;99.90;;;;;;5060939;28;20048;-62
2023/10/24 05:42:32;;;;;;;5.35;1.00;;;12.70;99.90;;;;;;5059753;28;20402;-62
2023/10/24 05:44:57;;;;;;;1.17;0.95;;;12.70;99.90;;;;;;5067729;28;20109;-62
2023/10/24 05:47:23;;;;;;;2.30;1.08;;;12.70;99.90;;;;;;5059618;28;20045;-63
2023/10/24 05:49:50;;;;;;;1.55;1.00;;;12.70;99.90;;;;;;5061976;28;20033;-63
2023/10/24 05:52:16;;;;;;;1.08;0.98;;;12.50;99.90;;;;;;5060356;28;20062;-62
2023/10/24 05:54:41;;;;;;;6.82;1.20;;;12.50;99.90;;;;;;5060118;28;20028;-62
2023/10/24 05:57:07;;;;;;;2.70;1.10;;;12.50;99.90;;;;;;5062663;28;20460;-62
2023/10/24 05:59:33;;;;;;;6.95;2.78;;;12.40;99.90;;;;;;5062602;28;20035;-62
2023/10/24 06:01:59;;;;;;;5.28;1.23;;;12.40;99.90;;;;;;5061033;28;20037;-62
2023/10/24 06:04:25;;;;;;;7.65;1.27;;;12.40;99.90;;;;;;5059723;28;20036;-62
2023/10/24 06:06:50;;;;;;;2.13;0.95;;;12.40;99.90;;;;;;5065861;28;20029;-63
2023/10/24 06:09:16;;;;;;;4.45;0.95;;;12.30;99.90;;;;;;5061899;28;20513;-62
2023/10/24 06:11:41;;;;;;;1.20;1.08;;;12.30;99.90;;;;;;5065147;28;20488;-62
2023/10/24 06:14:08;;;;;;;8.05;1.50;;;12.30;99.90;;;;;;5066049;28;20056;-59
2023/10/24 06:16:34;;;;;;;1.73;1.23;;;12.30;99.90;;;;;;5061630;28;20024;-62
2023/10/24 06:18:59;;;;;;;1.40;0.90;;;12.20;99.90;;;;;;5058251;28;20043;-62
2023/10/24 06:21:26;;;;;;;2.88;0.93;;;12.30;99.90;;;;;;5068918;28;20040;-62
2023/10/24 06:23:53;;;;;;;5.68;1.13;;;12.30;99.90;;;;;;5074599;28;20554;-62
2023/10/24 06:26:19;;;;;;;5.82;1.23;;;12.30;99.90;;;;;;5057815;28;20080;-62
2023/10/24 06:28:45;;;;;;;3.20;1.60;;;12.30;99.90;;;;;;5073593;28;20044;-63
2023/10/24 06:31:11;;;;;;;3.33;1.25;;;12.20;99.90;;;;;;5062858;28;20067;-61
2023/10/24 06:33:38;;;;;;;2.70;1.60;;;12.20;99.90;;;;;;5064170;28;20040;-62
2023/10/24 06:36:04;;;;;;;3.65;1.52;;;12.20;99.90;;;;;;5059956;28;20394;-62
2023/10/24 06:38:30;;;;;;;1.80;1.30;;;12.20;99.90;;;;;;5058843;28;20056;-62
2023/10/24 06:40:56;;;;;;;2.63;1.38;;;12.20;99.90;;;;;;5061178;28;20021;-62
2023/10/24 06:43:22;;;;;;;3.85;1.55;;;12.20;99.90;;;;;;5070478;28;20403;-62
2023/10/24 06:45:47;;;;;;;3.47;1.88;;;12.20;99.90;;;;;;5057510;28;20056;-63
2023/10/24 06:48:14;;;;;;;7.65;1.85;;;12.30;99.90;;;;;;5074800;28;20035;-63
2023/10/24 06:50:40;;;;;;;5.78;1.48;;;12.20;99.90;;;;;;5061129;28;20437;-63
2023/10/24 06:53:09;;;;;;;2.30;1.55;;;12.20;99.90;;;;;;5058116;28;20024;-58
2023/10/24 06:55:36;;;;;;;4.47;1.48;;;12.10;99.90;;;;;;5065695;28;20101;-59
2023/10/24 06:58:05;;;;;;;2.78;1.70;;;12.10;99.90;;;;;;5068367;28;20021;-59
2023/10/24 07:00:31;;;;;;;4.93;1.45;;;12.10;99.90;;;;;;5057598;28;20033;-59
2023/10/24 07:02:57;;;;;;;5.15;1.70;;;12.10;99.90;;;;;;5064000;28;20091;-60
2023/10/24 07:05:23;;;;;;;5.53;1.77;;;12.10;99.90;;;;;;5066175;28;20482;-55
2023/10/24 07:07:49;;;;;;;3.63;1.50;;;12.00;99.90;;;;;;5064720;28;20029;-56
2023/10/24 07:10:15;;;;;;;4.68;1.75;;;12.10;99.90;;;;;;5067818;28;20094;-53
2023/10/24 07:12:40;;;;;;;7.72;1.30;;;12.10;99.90;;;;;;5070548;28;20039;-57
2023/10/24 07:15:07;;;;;;;2.47;1.55;;;12.10;99.90;;;;;;5071119;28;20446;-57
2023/10/24 07:17:33;;;;;;;8.50;2.15;;;12.10;99.90;;;;;;5078495;28;20421;-58
2023/10/24 07:19:59;;;;;;;3.90;1.30;;;12.10;99.90;;;;;;5061348;28;20107;-58
2023/10/24 07:22:25;;;;;;;4.82;1.65;;;12.20;99.90;;;;;;5064738;28;20032;-56
2023/10/24 07:24:51;;;;;;;5.28;1.60;;;12.30;99.90;;;;;;5072241;28;20024;-57
2023/10/24 07:27:16;;;;;;;2.65;1.38;;;12.30;99.90;;;;;;5068516;28;20033;-54
2023/10/24 07:29:42;;;;;;;4.00;1.63;;;12.30;99.90;;;;;;5065693;28;21885;-60
2023/10/24 07:32:08;;;;;;;1.40;1.13;;;12.40;99.90;;;;;;5064238;28;20021;-58
2023/10/24 07:34:34;;;;;;;4.78;1.30;;;12.40;99.90;;;;;;5075055;28;20043;-57
2023/10/24 07:37:00;;;;;;;6.78;1.60;;;12.40;99.90;;;;;;5070987;28;20024;-57
2023/10/24 07:39:26;;;;;;;2.25;1.75;;;12.40;99.90;;;;;;5066193;28;20027;-55
2023/10/24 07:41:51;;;;;;;3.88;1.95;;;12.40;99.90;;;;;;5066161;28;20099;-58
2023/10/24 07:44:17;;;;;;;7.90;2.20;;;12.40;99.90;;;;;;5064448;28;20021;-54
2023/10/24 07:46:43;;;;;;;3.70;1.58;;;12.40;99.90;;;;;;5070362;28;20025;-54
2023/10/24 07:49:09;;;;;;;2.92;1.60;;;12.40;99.90;;;;;;5072869;28;20111;-52
2023/10/24 07:51:34;;;;;;;5.15;1.55;;;12.50;99.90;;;;;;5061790;28;20037;-56
2023/10/24 07:54:00;;;;;;;6.68;1.65;;;12.50;99.90;;;;;;5071565;28;20029;-59
2023/10/24 07:56:25;;;;;;;2.22;1.70;;;12.50;99.90;;;;;;5063299;28;20029;-58
2023/10/24 07:58:51;;;;;;;1.92;1.60;;;12.60;99.90;;;;;;5061610;28;20024;-57
2023/10/24 08:01:18;;;;;;;5.15;1.73;;;12.60;99.90;;;;;;5060954;28;20032;-58
2023/10/24 08:03:44;;;;;;;1.67;1.52;;;12.70;99.90;;;;;;5071874;28;20051;-57
2023/10/24 08:06:10;;;;;;;2.28;1.45;;;12.80;99.90;;;;;;5066603;28;20567;-55
2023/10/24 08:08:35;;;;;;;5.03;1.67;;;12.90;99.90;;;;;;5067335;28;20036;-58
2023/10/24 08:11:01;;;;;;;8.68;1.80;;;12.90;99.90;;;;;;5061278;28;20020;-58
2023/10/24 08:13:27;;;;;;;7.07;2.03;;;12.90;99.90;;;;;;5079454;28;20020;-59
2023/10/24 08:15:53;;;;;;;6.85;2.00;;;12.90;99.90;;;;;;5059911;28;20025;-55
2023/10/24 08:18:18;;;;;;;2.83;1.98;;;12.90;99.90;;;;;;5065984;28;20017;-58
2023/10/24 08:20:45;;;;;;;2.88;1.60;;;13.00;99.90;;;;;;5061714;28;20474;-58
2023/10/24 08:23:11;;;;;;;3.15;2.05;;;13.00;99.90;;;;;;5066498;28;20137;-56
2023/10/24 08:25:36;;;;;;;4.90;1.83;;;13.10;99.90;;;;;;5063592;28;20095;-58
2023/10/24 08:28:02;;;;;;;2.83;1.35;;;13.10;99.90;;;;;;5078267;28;22312;-52
2023/10/24 08:30:31;;;;;;;1.30;1.17;;;13.10;99.90;;;;;;5072311;28;20021;-57
2023/10/24 08:32:57;;;;;;;3.90;1.42;;;13.20;99.90;;;;;;5066890;28;20561;-59
2023/10/24 08:35:23;;;;;;;3.78;1.83;;;13.30;99.90;;;;;;5067507;28;20100;-59
2023/10/24 08:37:48;;;;;;;2.80;1.08;;;13.30;99.90;;;;;;5070035;28;20024;-57
2023/10/24 08:40:14;;;;;;;5.30;1.20;;;13.30;99.90;;;;;;5070400;28;20019;-57
2023/10/24 08:42:41;;;;;;;2.50;1.20;;;13.40;99.90;;;;;;5072127;28;20032;-58
2023/10/24 08:45:07;;;;;;;1.55;1.10;;;13.50;99.90;;;;;;5062918;28;20216;-58
2023/10/24 08:47:35;;;;;;;3.35;1.40;;;13.50;99.90;;;;;;5071608;28;20096;-55
2023/10/24 08:50:01;;;;;;;3.55;1.30;;;13.60;99.90;;;;;;5055483;28;20491;-57
2023/10/24 08:52:28;;;;;;;3.17;1.30;;;13.60;99.90;;;;;;5063745;28;20028;-57
2023/10/24 08:54:54;;;;;;;3.08;1.20;;;13.70;99.90;;;;;;5069363;28;20017;-57
2023/10/24 08:57:28;;;;;;;1.40;1.20;;;13.80;99.90;;;;;;5070765;28;20066;-59
2023/10/24 08:59:55;;;;;;;2.20;1.20;;;13.80;99.90;;;;;;5065939;28;20058;-57
2023/10/24 09:02:22;;;;;;;3.75;1.20;;;13.90;99.90;;;;;;5062473;28;20283;-58
2023/10/24 09:04:50;;;;;;;5.18;1.30;;;13.90;99.90;;;;;;5060803;28;20067;-58
2023/10/24 09:07:15;;;;;;;3.20;1.67;;;14.00;99.90;;;;;;5070559;28;20678;-58
2023/10/24 09:09:41;;;;;;;4.95;1.05;;;14.00;99.90;;;;;;5073270;28;20119;-56
2023/10/24 09:12:08;;;;;;;2.55;1.20;;;14.10;99.90;;;;;;5062958;28;20120;-54
2023/10/24 09:14:33;;;;;;;4.28;1.85;;;14.00;99.90;;;;;;5073324;28;20029;-56
2023/10/24 09:17:01;;;;;;;2.45;1.70;;;14.00;99.90;;;;;;5069304;28;20028;-57
2023/10/24 09:19:27;;;;;;;1.75;1.27;;;14.10;99.90;;;;;;5078088;28;20047;-57
2023/10/24 09:21:56;;;;;;;1.50;1.17;;;14.00;99.90;;;;;;5060801;28;20071;-55
2023/10/24 09:24:22;;;;;;;2.05;1.10;;;14.00;99.90;;;;;;5066161;28;20027;-57
2023/10/24 09:26:52;;;;;;;3.85;1.05;;;14.10;99.90;;;;;;5064678;28;20363;-57
2023/10/24 09:29:18;;;;;;;2.88;1.52;;;14.10;99.90;;;;;;5073902;28;20115;-59
2023/10/24 09:31:46;;;;;;;2.08;1.05;;;14.10;99.90;;;;;;5062043;28;20028;-57
2023/10/24 09:34:12;;;;;;;1.15;0.85;;;14.10;99.90;;;;;;5069216;28;20036;-51
2023/10/24 09:36:37;;;;;;;2.17;0.98;;;14.10;99.90;;;;;;5071664;28;20052;-55
2023/10/24 09:39:03;;;;;;;1.42;0.80;;;14.10;99.90;;;;;;5064659;28;20067;-55
2023/10/24 09:41:30;;;;;;;4.97;1.60;;;14.10;99.90;;;;;;5071668;28;20035;-55
2023/10/24 09:44:01;;;;;;;3.78;1.67;;;14.20;99.90;;;;;;5071098;28;20028;-59
2023/10/24 09:46:28;;;;;;;2.65;0.93;;;14.20;99.90;;;;;;5068182;28;20039;-55
2023/10/24 09:48:55;;;;;;;2.13;1.13;;;14.30;99.90;;;;;;5073027;28;20024;-58
2023/10/24 09:51:22;;;;;;;4.07;1.30;;;14.30;99.90;;;;;;5065641;28;20094;-54
2023/10/24 09:53:48;;;;;;;4.28;1.30;;;14.30;99.90;;;;;;5072071;28;20025;-58
2023/10/24 09:56:15;;;;;;;2.05;0.85;;;14.30;99.90;;;;;;5066133;28;20017;-57
2023/10/24 09:58:42;;;;;;;2.50;0.93;;;14.30;99.90;;;;;;5070266;28;20036;-58
2023/10/24 10:01:09;;;;;;;5.43;1.52;;;14.30;99.90;;;;;;5073815;28;20435;-57
2023/10/24 10:03:35;;;;;;;2.30;1.20;;;14.40;99.90;;;;;;5070389;28;20154;-57
2023/10/24 10:06:06;;;;;;;1.40;0.90;;;14.50;99.90;;;;;;5056751;28;20028;-58
2023/10/24 10:08:36;;;;;;;1.70;0.90;;;14.60;99.90;;;;;;5056698;28;20077;-54
2023/10/24 10:11:06;;;;;;;2.22;1.20;;;14.70;99.90;;;;;;5058796;28;20403;-56
2023/10/24 10:13:38;;;;;;;3.08;0.90;;;14.80;99.90;;;;;;5059448;28;20031;-53
2023/10/24 10:16:21;;;;;;;1.25;0.90;;;14.90;99.90;;;;;;5064989;28;20394;-56
2023/10/24 10:19:17;;;;;;;2.60;0.88;;;14.80;99.90;;;;;;5060461;28;20059;-57
2023/10/24 10:22:10;;;;;;;3.25;1.02;;;14.90;99.90;;;;;;5067947;28;20039;-58
2023/10/24 10:24:54;;;;;;;1.50;0.80;;;15.00;99.90;;;;;;5056561;28;20037;-59
2023/10/24 10:28:01;;;;;;;1.47;1.00;;;15.00;99.90;;;;;;5059669;28;20166;-59
2023/10/24 10:30:50;;;;;;;3.20;1.10;;;15.10;99.90;;;;;;5055809;28;20305;-59
2023/10/24 10:33:18;;;;;;;8.38;1.20;;;15.00;99.90;;;;;;5052968;28;20099;-56
2023/10/24 10:35:53;;;;;;;8.20;0.95;;;15.00;99.90;;;;;;5054709;28;20032;-56
2023/10/24 10:38:41;;;;;;;1.38;0.85;;;15.00;99.90;;;;;;5051308;28;20030;-56
2023/10/24 10:41:21;;;;;;;3.33;1.00;;;14.90;99.90;;;;;;5060544;28;20169;-57
2023/10/24 10:43:55;;;;;;;5.22;0.95;;;14.90;99.90;;;;;;5054341;28;20037;-57
2023/10/24 10:46:24;;;;;;;2.15;0.88;;;14.80;99.90;;;;;;5058408;28;20028;-58
2023/10/24 10:48:50;;;;;;;4.55;1.40;;;14.70;99.90;;;;;;5063825;28;21696;-56
2023/10/24 10:51:20;;;;;;;5.22;1.67;;;14.60;99.90;;;;;;5063810;28;20154;-57
2023/10/24 10:53:55;;;;;;;4.07;1.67;;;14.50;99.90;;;;;;5054701;28;20035;-58
2023/10/24 10:56:30;;;;;;;8.50;2.25;;;14.40;99.90;;;;;;5060385;28;20055;-57
2023/10/24 10:59:04;;;;;;;8.32;2.72;;;14.40;99.90;;;;;;5052436;28;20029;-58
2023/10/24 11:01:39;;;;;;;;;;;14.40;99.90;;;;;;5060343;28;20030;-60
2023/10/24 11:04:14;;;;;;;9.00;1.88;;;14.30;99.90;;;;;;5051604;28;19974;-59
2023/10/24 11:06:56;;;;;;;5.05;1.63;;;14.30;99.90;;;;;;5060220;28;20100;-58
2023/10/24 11:09:30;;;;;;;5.65;1.70;;;14.20;99.90;;;;;;5068271;28;20532;-59
2023/10/24 11:12:20;;;;;;;8.43;1.40;;;14.20;99.90;;;;;;5054644;28;20112;-56
2023/10/24 11:15:09;;;;;;;4.88;1.48;;;14.10;99.90;;;;;;5064094;28;20033;-59
2023/10/24 11:17:36;;;;;;;3.78;1.63;;;14.10;99.90;;;;;;5055970;28;20028;-58
2023/10/24 11:20:08;;;;;;;6.78;1.58;;;14.00;99.90;;;;;;5059240;28;20044;-56
2023/10/24 11:22:34;;;;;;;5.00;1.85;;;13.90;99.90;;;;;;5056872;28;20025;-54
2023/10/24 11:25:00;;;;;;;6.10;1.40;;;14.00;99.90;;;;;;5055567;28;20041;-58
2023/10/24 11:27:25;;;;;;;3.78;1.65;;;13.90;99.90;;;;;;5058916;28;20051;-58
2023/10/24 11:29:51;;;;;;;4.25;1.77;;;14.00;99.90;;;;;;5055655;28;20437;-58
2023/10/24 11:32:17;;;;;;;3.30;1.60;;;14.00;99.90;;;;;;5057647;28;20037;-58
2023/10/24 11:34:44;;;;;;;4.97;1.88;;;13.90;99.90;;;;;;5055677;28;20052;-58
2023/10/24 11:37:09;;;;;;;6.00;2.03;;;13.90;99.90;;;;;;5055144;28;20656;-59
2023/10/24 11:39:35;;;;;;;6.18;1.98;;;13.80;99.90;;;;;;5058345;28;20055;-58
2023/10/24 11:42:04;;;;;;;2.70;1.70;;;13.90;99.90;;;;;;5056653;28;20037;-59
2023/10/24 11:44:30;;;;;;;6.72;2.55;;;13.80;99.90;;;;;;5055662;28;20064;-59
2023/10/24 11:46:55;;;;;;;6.22;2.13;;;13.80;99.90;;;;;;5063050;28;20052;-60
2023/10/24 11:49:32;;;;;;;3.25;1.83;;;13.70;99.90;;;;;;5056926;28;20067;-57
2023/10/24 11:51:58;;;;;;;5.90;2.13;;;13.80;99.90;;;;;;5059324;28;20035;-58
2023/10/24 11:54:26;;;;;;;4.75;1.95;;;13.80;99.90;;;;;;5062585;28;20508;-57
2023/10/24 11:56:54;;;;;;;9.07;2.17;;;13.70;99.90;;;;;;5061380;28;20139;-55
2023/10/24 11:59:20;;;;;;;9.63;2.20;;;13.60;99.90;;;;;;5059081;28;20032;-52
2023/10/24 12:01:46;;;;;;;5.78;2.20;;;13.60;99.90;;;;;;5061572;28;20043;-59
2023/10/24 12:04:15;;;;;;;4.88;2.20;;;13.60;99.90;;;;;;5058339;28;20028;-57
2023/10/24 12:06:41;;;;;;;5.00;2.47;;;13.60;99.90;;;;;;5055640;28;20094;-59
2023/10/24 12:09:07;;;;;;;5.97;2.42;;;13.60;99.90;;;;;;5059876;28;20032;-58
2023/10/24 12:11:33;;;;;;;9.18;2.85;;;13.50;99.90;;;;;;5061889;28;20029;-59
2023/10/24 12:14:00;;;;;;;20.95;3.60;;;13.50;99.90;;;;;;5061585;28;20021;-59
2023/10/24 12:16:32;;;;;;;21.48;3.53;;;13.50;99.90;;;;;;5062342;28;20043;-60
2023/10/24 12:18:58;;;;;;;13.95;3.92;;;13.40;99.90;;;;;;5060652;28;20621;-58
2023/10/24 12:21:24;;;;;;;9.93;3.63;;;13.40;99.90;;;;;;5062472;28;20130;-60
2023/10/24 12:23:49;;;;;;;11.85;5.47;;;13.30;99.90;;;;;;5060552;28;20032;-60
2023/10/24 12:26:15;;;;;;;15.32;4.82;;;13.10;99.90;;;;;;5064723;28;20029;-60
2023/10/24 12:28:44;;;;;;;9.45;4.40;;;13.00;99.90;;;;;;5054575;28;20052;-59
2023/10/24 12:31:10;;;;;;;7.05;3.85;;;13.00;99.90;;;;;;5060876;28;20086;-59
2023/10/24 12:33:36;;;;;;;8.68;2.45;;;12.80;99.90;;;;;;5062095;28;20376;-59
2023/10/24 12:36:02;;;;;;;3.45;1.77;;;12.80;99.90;;;;;;5065719;28;20028;-56
2023/10/24 12:38:29;;;;;;;4.47;1.52;;;12.70;99.90;;;;;;5059691;28;20020;-59
2023/10/24 12:40:54;;;;;;;3.92;2.03;;;12.70;99.90;;;;;;5068450;28;20041;-60
2023/10/24 12:43:20;;;;;;;5.40;1.90;;;12.80;99.90;;;;;;5063868;28;20026;-59
2023/10/24 12:45:46;;;;;;;4.38;1.48;;;12.70;99.90;;;;;;5066377;28;20017;-60